createdAt,value
2023-05-06T00:00:29.668Z,4.00
2023-05-06T00:01:32.936Z,4.50
2023-05-06T00:02:36.264Z,3.50
2023-05-06T00:03:39.656Z,4.00
2023-05-06T00:04:42.800Z,3.00
2023-05-06T00:05:46.294Z,4.00
2023-05-06T00:06:49.773Z,6.00
2023-05-06T00:07:53.475Z,4.75
2023-05-06T00:08:56.965Z,3.75
2023-05-06T00:10:00.653Z,3.50
2023-05-06T00:11:03.937Z,4.00
2023-05-06T00:12:07.322Z,4.00
2023-05-06T00:13:10.856Z,5.25
2023-05-06T00:14:14.187Z,3.75
2023-05-06T00:15:18.093Z,3.75
2023-05-06T00:16:21.503Z,4.25
2023-05-06T00:17:25.091Z,3.25
2023-05-06T00:18:28.316Z,5.50
2023-05-06T00:19:31.751Z,5.25
2023-05-06T00:20:35.142Z,3.50
2023-05-06T00:21:38.540Z,5.00
2023-05-06T00:22:41.695Z,6.50
2023-05-06T00:23:44.778Z,4.00
2023-05-06T00:24:47.954Z,3.00
2023-05-06T00:25:51.237Z,3.50
2023-05-06T00:26:54.329Z,4.20
2023-05-06T00:27:57.508Z,4.25
2023-05-06T00:29:01.704Z,4.50
2023-05-06T00:30:05.092Z,4.00
2023-05-06T00:31:08.486Z,4.50
2023-05-06T00:32:12.096Z,5.50
2023-05-06T00:33:15.561Z,6.00
2023-05-06T00:34:18.879Z,4.75
2023-05-06T00:35:22.471Z,5.00
2023-05-06T00:36:25.615Z,4.50
2023-05-06T00:37:28.902Z,3.00
2023-05-06T00:38:32.491Z,3.50
2023-05-06T00:39:35.576Z,3.75
2023-05-06T00:40:38.751Z,5.00
2023-05-06T00:41:41.883Z,5.00
2023-05-06T00:42:45.528Z,5.50
2023-05-06T00:43:48.832Z,5.25
2023-05-06T00:44:52.092Z,3.25
2023-05-06T00:45:55.332Z,4.00
2023-05-06T00:46:58.573Z,4.20
2023-05-06T00:48:01.914Z,4.50
2023-05-06T00:49:05.241Z,4.00
2023-05-06T00:50:08.518Z,2.50
2023-05-06T00:51:11.704Z,3.00
2023-05-06T00:52:14.990Z,3.00
2023-05-06T00:53:18.164Z,4.00
2023-05-06T00:54:21.560Z,4.00
2023-05-06T00:55:24.734Z,4.50
2023-05-06T00:56:28.120Z,5.00
2023-05-06T00:57:31.205Z,3.25
2023-05-06T00:58:34.387Z,3.50
2023-05-06T00:59:37.877Z,4.00
2023-05-06T01:00:41.464Z,5.25
2023-05-06T01:01:44.752Z,4.75
2023-05-06T01:02:48.436Z,3.25
2023-05-06T01:03:51.542Z,3.50
2023-05-06T01:04:54.655Z,4.25
2023-05-06T01:05:57.890Z,4.25
2023-05-06T01:07:01.067Z,3.75
2023-05-06T01:08:04.221Z,3.75
2023-05-06T01:09:07.451Z,4.50
2023-05-06T01:10:10.515Z,3.50
2023-05-06T01:11:15.613Z,3.75
2023-05-06T01:12:17.796Z,4.00
2023-05-06T01:13:21.077Z,6.00
2023-05-06T01:14:24.270Z,5.00
2023-05-06T01:15:27.549Z,4.50
2023-05-06T01:16:30.918Z,3.75
2023-05-06T01:17:34.140Z,2.25
2023-05-06T01:18:37.417Z,2.50
2023-05-06T01:19:40.693Z,3.50
2023-05-06T01:20:43.884Z,2.50
2023-05-06T01:21:46.942Z,2.50
2023-05-06T01:22:50.379Z,2.60
2023-05-06T01:23:54.026Z,3.00
2023-05-06T01:24:57.222Z,2.50
2023-05-06T01:26:00.398Z,2.00
2023-05-06T01:27:03.886Z,2.00
2023-05-06T01:28:07.373Z,1.25
2023-05-06T01:29:10.513Z,1.00
2023-05-06T01:30:13.862Z,1.75
2023-05-06T01:31:17.375Z,1.75
2023-05-06T01:32:21.057Z,2.50
2023-05-06T01:33:24.412Z,2.50
2023-05-06T01:34:27.806Z,2.00
2023-05-06T01:35:31.597Z,3.00
2023-05-06T01:36:34.883Z,2.00
2023-05-06T01:37:38.064Z,2.00
2023-05-06T01:38:41.239Z,3.00
2023-05-06T01:39:44.622Z,2.50
2023-05-06T01:40:48.014Z,3.00
2023-05-06T01:41:51.615Z,2.25
2023-05-06T01:42:54.784Z,1.25
2023-05-06T01:43:57.974Z,3.00
2023-05-06T01:45:01.663Z,2.50
2023-05-06T01:46:05.140Z,2.00
2023-05-06T01:47:08.127Z,2.40
2023-05-06T01:48:11.518Z,2.25
2023-05-06T01:49:14.899Z,4.25
2023-05-06T01:50:18.084Z,5.00
2023-05-06T01:51:24.337Z,4.00
2023-05-06T01:52:28.037Z,2.50
2023-05-06T01:53:31.733Z,2.50
2023-05-06T01:54:35.111Z,4.00
2023-05-06T01:55:38.605Z,3.00
2023-05-06T01:56:42.103Z,2.50
2023-05-06T01:57:45.676Z,2.25
2023-05-06T01:58:49.074Z,2.00
2023-05-06T01:59:52.351Z,3.25
2023-05-06T02:00:55.431Z,3.75
2023-05-06T02:01:59.542Z,2.50
2023-05-06T02:03:03.566Z,3.00
2023-05-06T02:04:07.105Z,4.00
2023-05-06T02:05:10.983Z,3.50
2023-05-06T02:06:14.735Z,4.25
2023-05-06T02:07:18.207Z,2.75
2023-05-06T02:08:21.702Z,1.50
2023-05-06T02:09:25.810Z,2.25
2023-05-06T02:10:29.290Z,3.50
2023-05-06T02:11:32.881Z,3.50
2023-05-06T02:12:36.201Z,2.50
2023-05-06T02:13:39.565Z,2.75
2023-05-06T02:14:43.468Z,2.50
2023-05-06T02:15:46.934Z,1.50
2023-05-06T02:16:50.340Z,3.00
2023-05-06T02:17:53.948Z,4.25
2023-05-06T02:18:57.304Z,3.75
2023-05-06T02:20:01.314Z,2.50
2023-05-06T02:21:05.310Z,3.00
2023-05-06T02:22:08.798Z,2.25
2023-05-06T02:23:12.543Z,2.00
2023-05-06T02:24:15.975Z,2.00
2023-05-06T02:25:19.267Z,3.00
2023-05-06T02:26:22.667Z,3.00
2023-05-06T02:27:26.445Z,2.00
2023-05-06T02:28:29.827Z,2.00
2023-05-06T02:29:33.933Z,3.50
2023-05-06T02:30:37.420Z,3.00
2023-05-06T02:31:40.868Z,2.00
2023-05-06T02:32:44.345Z,2.00
2023-05-06T02:33:47.985Z,2.00
2023-05-06T02:34:51.505Z,1.75
2023-05-06T02:35:54.972Z,2.75
2023-05-06T02:36:58.453Z,2.50
2023-05-06T02:38:02.071Z,3.50
2023-05-06T02:39:05.331Z,3.50
2023-05-06T02:40:08.865Z,2.50
2023-05-06T02:41:12.216Z,1.50
2023-05-06T02:42:16.064Z,2.00
2023-05-06T02:43:19.508Z,2.00
2023-05-06T02:44:22.986Z,2.50
2023-05-06T02:45:26.372Z,1.50
2023-05-06T02:46:29.670Z,2.00
2023-05-06T02:47:33.194Z,2.75
2023-05-06T02:48:36.839Z,3.75
2023-05-06T02:49:40.958Z,3.00
2023-05-06T02:50:44.529Z,3.25
2023-05-06T02:51:47.926Z,3.25
2023-05-06T02:52:51.326Z,3.00
2023-05-06T02:53:54.489Z,3.00
2023-05-06T02:54:57.762Z,2.25
2023-05-06T02:56:01.049Z,3.50
2023-05-06T02:57:04.447Z,4.75
2023-05-06T02:58:07.934Z,3.50
2023-05-06T02:59:11.850Z,3.00
2023-05-06T03:00:15.123Z,3.25
2023-05-06T03:01:19.035Z,4.00
2023-05-06T03:02:22.033Z,3.00
2023-05-06T03:03:25.379Z,2.50
2023-05-06T03:04:28.755Z,2.75
2023-05-06T03:05:32.171Z,4.50
2023-05-06T03:06:35.744Z,3.50
2023-05-06T03:07:39.449Z,2.50
2023-05-06T03:08:42.722Z,4.00
2023-05-06T03:09:46.109Z,2.50
2023-05-06T03:10:49.488Z,2.50
2023-05-06T03:11:52.574Z,3.00
2023-05-06T03:12:56.247Z,2.25
2023-05-06T03:14:00.179Z,3.00
2023-05-06T03:15:03.244Z,2.00
2023-05-06T03:16:06.579Z,2.00
2023-05-06T03:17:09.824Z,2.50
2023-05-06T03:18:13.112Z,3.00
2023-05-06T03:19:16.288Z,4.50
2023-05-06T03:20:19.601Z,3.25
2023-05-06T03:21:22.788Z,2.75
2023-05-06T03:22:26.142Z,4.50
2023-05-06T03:23:29.216Z,4.00
2023-05-06T03:24:32.494Z,2.50
2023-05-06T03:25:36.097Z,3.50
2023-05-06T03:26:39.415Z,2.50
2023-05-06T03:27:42.763Z,2.00
2023-05-06T03:28:46.347Z,2.25
2023-05-06T03:29:49.942Z,2.00
2023-05-06T03:30:53.424Z,2.00
2023-05-06T03:33:00.063Z,3.00
2023-05-06T03:34:03.103Z,1.50
2023-05-06T03:35:06.364Z,2.00
2023-05-06T03:36:09.965Z,3.25
2023-05-06T03:37:13.338Z,4.00
2023-05-06T03:38:17.042Z,2.50
2023-05-06T03:39:20.627Z,1.75
2023-05-06T03:40:23.880Z,1.50
2023-05-06T03:41:27.097Z,2.50
2023-05-06T03:42:30.372Z,2.75
2023-05-06T03:43:33.865Z,3.25
2023-05-06T03:44:37.673Z,3.50
2023-05-06T03:45:41.064Z,2.50
2023-05-06T03:46:44.599Z,1.75
2023-05-06T03:47:48.412Z,1.50
2023-05-06T03:48:51.937Z,0.50
2023-05-06T03:49:55.647Z,2.00
2023-05-06T03:50:59.100Z,3.00
2023-05-06T03:52:02.711Z,3.00
2023-05-06T03:53:06.184Z,3.00
2023-05-06T03:54:09.813Z,2.50
2023-05-06T03:55:12.874Z,3.50
2023-05-06T03:56:16.457Z,1.75
2023-05-06T03:57:19.733Z,3.00
2023-05-06T03:58:23.114Z,3.00
2023-05-06T03:59:26.526Z,3.20
2023-05-06T04:00:29.900Z,4.00
2023-05-06T04:01:33.492Z,2.50
2023-05-06T04:02:37.169Z,2.00
2023-05-06T04:03:41.267Z,1.50
2023-05-06T04:04:44.877Z,1.50
2023-05-06T04:05:48.366Z,2.00
2023-05-06T04:06:51.719Z,3.50
2023-05-06T04:07:55.042Z,3.25
2023-05-06T04:08:58.527Z,2.50
2023-05-06T04:10:02.213Z,2.00
2023-05-06T04:11:05.608Z,2.25
2023-05-06T04:12:08.889Z,2.50
2023-05-06T04:13:12.467Z,2.25
2023-05-06T04:14:16.177Z,3.50
2023-05-06T04:15:19.868Z,3.00
2023-05-06T04:16:23.778Z,2.50
2023-05-06T04:17:27.076Z,4.00
2023-05-06T04:18:30.655Z,2.75
2023-05-06T04:19:34.441Z,1.50
2023-05-06T04:20:38.237Z,2.50
2023-05-06T04:21:41.515Z,1.75
2023-05-06T04:22:45.209Z,2.25
2023-05-06T04:23:48.699Z,2.50
2023-05-06T04:24:52.097Z,3.50
2023-05-06T04:25:55.471Z,1.50
2023-05-06T04:26:58.776Z,3.00
2023-05-06T04:28:02.252Z,2.75
2023-05-06T04:29:05.710Z,0.75
2023-05-06T04:30:09.327Z,3.00
2023-05-06T04:31:13.156Z,3.50
2023-05-06T04:32:16.516Z,2.50
2023-05-06T04:33:20.001Z,2.50
2023-05-06T04:34:23.174Z,2.25
2023-05-06T04:35:26.480Z,3.00
2023-05-06T04:36:29.865Z,3.00
2023-05-06T04:37:33.042Z,2.00
2023-05-06T04:38:36.130Z,1.50
2023-05-06T04:39:39.499Z,2.00
2023-05-06T04:40:42.794Z,2.00
2023-05-06T04:41:46.155Z,2.00
2023-05-06T04:42:49.438Z,1.25
2023-05-06T04:43:52.636Z,3.25
2023-05-06T04:44:55.817Z,2.75
2023-05-06T04:45:59.153Z,2.25
2023-05-06T04:47:02.502Z,2.50
2023-05-06T04:48:05.956Z,2.00
2023-05-06T04:49:10.402Z,3.50
2023-05-06T04:50:13.264Z,2.75
2023-05-06T04:51:16.861Z,4.00
2023-05-06T04:52:20.548Z,4.50
2023-05-06T04:53:24.048Z,4.00
2023-05-06T04:54:27.319Z,2.00
2023-05-06T04:55:30.707Z,2.00
2023-05-06T04:56:33.896Z,2.75
2023-05-06T04:57:37.184Z,2.75
2023-05-06T04:58:40.777Z,3.25
2023-05-06T04:59:43.839Z,3.00
2023-05-06T05:00:46.829Z,2.00
2023-05-06T05:01:50.253Z,2.50
2023-05-06T05:02:53.614Z,1.50
2023-05-06T05:03:56.900Z,2.00
2023-05-06T05:05:00.077Z,2.00
2023-05-06T05:06:03.271Z,2.00
2023-05-06T05:07:06.529Z,2.50
2023-05-06T05:08:09.916Z,4.00
2023-05-06T05:09:13.212Z,2.00
2023-05-06T05:10:16.682Z,2.50
2023-05-06T05:11:19.776Z,2.00
2023-05-06T05:12:22.648Z,2.50
2023-05-06T05:13:25.646Z,2.75
2023-05-06T05:14:28.841Z,1.75
2023-05-06T05:15:32.104Z,1.50
2023-05-06T05:16:35.560Z,3.00
2023-05-06T05:17:38.885Z,4.50
2023-05-06T05:18:41.968Z,3.50
2023-05-06T05:19:45.235Z,2.50
2023-05-06T05:20:48.617Z,1.50
2023-05-06T05:21:51.802Z,3.00
2023-05-06T05:22:55.000Z,4.00
2023-05-06T05:23:58.365Z,3.00
2023-05-06T05:25:01.450Z,2.25
2023-05-06T05:26:04.624Z,2.00
2023-05-06T05:27:07.706Z,2.00
2023-05-06T05:28:11.205Z,1.50
2023-05-06T05:29:14.490Z,2.00
2023-05-06T05:30:18.020Z,2.50
2023-05-06T05:31:21.150Z,2.00
2023-05-06T05:32:24.573Z,2.40
2023-05-06T05:33:28.083Z,3.00
2023-05-06T05:34:31.214Z,2.75
2023-05-06T05:35:34.804Z,1.50
2023-05-06T05:36:37.886Z,1.00
2023-05-06T05:37:41.165Z,1.00
2023-05-06T05:38:44.344Z,2.50
2023-05-06T05:39:47.546Z,2.00
2023-05-06T05:40:50.923Z,3.00
2023-05-06T05:41:54.399Z,3.50
2023-05-06T05:42:57.697Z,1.00
2023-05-06T05:44:00.879Z,2.25
2023-05-06T05:45:03.964Z,2.50
2023-05-06T05:46:07.152Z,3.75
2023-05-06T05:47:10.208Z,5.00
2023-05-06T05:48:13.390Z,3.00
2023-05-06T05:49:16.578Z,2.00
2023-05-06T05:50:19.761Z,2.00
2023-05-06T05:51:23.137Z,2.50
2023-05-06T05:52:26.650Z,3.00
2023-05-06T05:53:29.906Z,2.00
2023-05-06T05:54:33.154Z,3.25
2023-05-06T05:55:36.082Z,3.00
2023-05-06T05:56:39.164Z,2.00
2023-05-06T05:57:42.541Z,1.75
2023-05-06T05:58:45.830Z,2.60
2023-05-06T05:59:49.442Z,3.00
2023-05-06T06:00:52.811Z,2.50
2023-05-06T06:01:56.290Z,3.50
2023-05-06T06:02:59.777Z,3.50
2023-05-06T06:04:03.397Z,3.00
2023-05-06T06:05:07.225Z,3.00
2023-05-06T06:06:11.070Z,4.00
2023-05-06T06:07:15.072Z,3.50
2023-05-06T06:08:18.965Z,2.00
2023-05-06T06:09:22.470Z,2.50
2023-05-06T06:10:26.179Z,2.75
2023-05-06T06:11:29.663Z,1.75
2023-05-06T06:12:33.297Z,2.25
2023-05-06T06:13:36.619Z,3.00
2023-05-06T06:14:40.926Z,2.00
2023-05-06T06:15:44.747Z,1.50
2023-05-06T06:16:48.622Z,2.00
2023-05-06T06:17:52.133Z,3.00
2023-05-06T06:18:56.014Z,5.00
2023-05-06T06:19:59.493Z,3.50
2023-05-06T06:21:02.901Z,2.50
2023-05-06T06:22:06.600Z,3.00
2023-05-06T06:23:10.376Z,3.00
2023-05-06T06:24:14.195Z,4.50
2023-05-06T06:25:17.350Z,3.00
2023-05-06T06:26:20.544Z,1.00
2023-05-06T06:27:23.815Z,2.25
2023-05-06T06:28:27.108Z,2.25
2023-05-06T06:29:31.405Z,2.50
2023-05-06T06:30:34.884Z,3.00
2023-05-06T06:31:40.477Z,4.75
2023-05-06T06:32:43.662Z,5.00
2023-05-06T06:33:47.410Z,3.75
2023-05-06T06:34:50.905Z,3.50
2023-05-06T06:35:54.417Z,3.00
2023-05-06T06:36:58.092Z,3.25
2023-05-06T06:38:01.889Z,3.00
2023-05-06T06:39:05.475Z,3.50
2023-05-06T06:40:09.261Z,7.00
2023-05-06T06:41:12.876Z,8.00
2023-05-06T06:42:16.247Z,6.75
2023-05-06T06:43:19.737Z,5.50
2023-05-06T06:44:23.642Z,5.00
2023-05-06T06:45:26.916Z,4.00
2023-05-06T06:46:30.109Z,3.00
2023-05-06T06:47:33.721Z,4.00
2023-05-06T06:48:37.192Z,4.50
2023-05-06T06:49:40.792Z,3.50
2023-05-06T06:50:44.362Z,3.00
2023-05-06T06:51:47.759Z,2.50
2023-05-06T06:52:51.031Z,3.00
2023-05-06T06:53:54.535Z,4.00
2023-05-06T06:54:57.927Z,5.00
2023-05-06T06:56:01.393Z,6.00
2023-05-06T06:57:04.476Z,4.25
2023-05-06T06:58:07.646Z,5.00
2023-05-06T06:59:11.263Z,5.00
2023-05-06T07:00:14.339Z,4.25
2023-05-06T07:01:17.684Z,4.80
2023-05-06T07:02:20.797Z,5.00
2023-05-06T07:03:24.106Z,5.00
2023-05-06T07:04:27.228Z,5.00
2023-05-06T07:05:30.344Z,5.00
2023-05-06T07:06:33.738Z,5.00
2023-05-06T07:07:36.918Z,5.00
2023-05-06T07:08:40.208Z,4.25
2023-05-06T07:09:43.586Z,4.50
2023-05-06T07:10:46.765Z,4.75
2023-05-06T07:11:50.252Z,5.00
2023-05-06T07:12:53.871Z,5.00
2023-05-06T07:13:57.134Z,5.00
2023-05-06T07:15:00.419Z,4.00
2023-05-06T07:16:03.694Z,3.25
2023-05-06T07:17:06.902Z,5.00
2023-05-06T07:18:10.309Z,5.00
2023-05-06T07:19:13.350Z,5.00
2023-05-06T07:20:16.530Z,5.50
2023-05-06T07:21:19.752Z,4.00
2023-05-06T07:22:23.426Z,4.00
2023-05-06T07:23:26.792Z,4.50
2023-05-06T07:24:30.499Z,5.00
2023-05-06T07:25:33.975Z,5.50
2023-05-06T07:26:37.461Z,5.00
2023-05-06T07:27:40.350Z,6.00
2023-05-06T07:28:43.820Z,6.00
2023-05-06T07:29:47.003Z,5.00
2023-05-06T07:30:50.780Z,4.50
2023-05-06T07:31:53.897Z,5.50
2023-05-06T07:32:56.949Z,5.75
2023-05-06T07:34:00.158Z,5.50
2023-05-06T07:35:03.968Z,5.00
2023-05-06T07:36:07.341Z,4.50
2023-05-06T07:37:10.859Z,4.50
2023-05-06T07:38:14.008Z,5.00
2023-05-06T07:39:17.490Z,5.50
2023-05-06T07:40:20.850Z,6.00
2023-05-06T07:41:24.463Z,6.25
2023-05-06T07:42:28.064Z,6.50
2023-05-06T07:43:31.248Z,6.75
2023-05-06T07:44:34.730Z,7.50
2023-05-06T07:45:38.427Z,7.00
2023-05-06T07:46:42.211Z,8.25
2023-05-06T07:47:45.989Z,13.25
2023-05-06T07:48:49.221Z,8.00
2023-05-06T07:49:52.994Z,6.00
2023-05-06T07:50:56.487Z,7.00
2023-05-06T07:52:00.011Z,22.00
2023-05-06T07:53:03.584Z,10.00
2023-05-06T07:54:07.053Z,8.00
2023-05-06T07:55:10.817Z,27.50
2023-05-06T07:56:14.452Z,27.50
2023-05-06T07:57:17.854Z,28.50
2023-05-06T07:58:21.239Z,26.50
2023-05-06T07:59:24.429Z,18.50
2023-05-06T08:00:28.296Z,73.75
2023-05-06T08:01:31.892Z,61.50
2023-05-06T08:02:35.831Z,57.50
2023-05-06T08:03:39.457Z,40.75
2023-05-06T08:04:43.167Z,21.25
2023-05-06T08:05:46.250Z,15.00
2023-05-06T08:06:49.375Z,10.00
2023-05-06T08:07:52.617Z,9.50
2023-05-06T08:08:55.830Z,8.00
2023-05-06T08:09:59.296Z,7.00
2023-05-06T08:11:02.771Z,16.25
2023-05-06T08:12:06.580Z,19.00
2023-05-06T08:13:10.101Z,8.25
2023-05-06T08:14:13.144Z,7.25
2023-05-06T08:15:16.341Z,11.00
2023-05-06T08:16:19.676Z,8.00
2023-05-06T08:17:22.812Z,7.00
2023-05-06T08:18:25.938Z,9.50
2023-05-06T08:19:29.271Z,10.50
2023-05-06T08:20:32.645Z,10.00
2023-05-06T08:21:36.149Z,9.50
2023-05-06T08:22:39.838Z,7.50
2023-05-06T08:23:42.889Z,7.25
2023-05-06T08:24:46.210Z,9.00
2023-05-06T08:25:49.405Z,8.50
2023-05-06T08:26:52.758Z,8.75
2023-05-06T08:27:56.163Z,9.00
2023-05-06T08:28:59.548Z,8.50
2023-05-06T08:30:03.035Z,7.75
2023-05-06T08:31:06.434Z,9.50
2023-05-06T08:32:10.093Z,9.25
2023-05-06T08:33:13.725Z,8.50
2023-05-06T08:34:17.203Z,8.50
2023-05-06T08:35:20.465Z,10.00
2023-05-06T08:36:23.873Z,10.25
2023-05-06T08:37:27.552Z,12.00
2023-05-06T08:38:30.944Z,13.00
2023-05-06T08:39:34.949Z,15.00
2023-05-06T08:40:38.550Z,14.50
2023-05-06T08:41:42.015Z,11.00
2023-05-06T08:42:45.441Z,9.00
2023-05-06T08:43:48.915Z,9.50
2023-05-06T08:44:52.700Z,8.50
2023-05-06T08:45:56.228Z,7.00
2023-05-06T08:46:59.484Z,9.25
2023-05-06T08:48:02.776Z,10.00
2023-05-06T08:49:05.931Z,8.50
2023-05-06T08:50:09.326Z,8.00
2023-05-06T08:51:12.263Z,9.25
2023-05-06T08:52:15.345Z,9.25
2023-05-06T08:53:18.669Z,9.00
2023-05-06T08:54:21.955Z,9.00
2023-05-06T08:55:25.326Z,9.25
2023-05-06T08:56:28.404Z,7.50
2023-05-06T08:57:31.590Z,9.00
2023-05-06T08:58:34.672Z,10.00
2023-05-06T08:59:37.747Z,6.80
2023-05-06T09:00:40.649Z,6.00
2023-05-06T09:01:43.868Z,6.50
2023-05-06T09:02:47.690Z,5.50
2023-05-06T09:03:50.808Z,6.50
2023-05-06T09:04:54.176Z,7.25
2023-05-06T09:05:57.561Z,8.00
2023-05-06T09:07:00.988Z,7.50
2023-05-06T09:08:04.231Z,8.00
2023-05-06T09:09:07.524Z,9.50
2023-05-06T09:10:11.062Z,8.50
2023-05-06T09:11:14.282Z,8.75
2023-05-06T09:12:17.470Z,9.50
2023-05-06T09:13:21.201Z,8.00
2023-05-06T09:14:24.454Z,6.50
2023-05-06T09:15:27.536Z,9.00
2023-05-06T09:16:31.257Z,10.00
2023-05-06T09:17:34.210Z,8.25
2023-05-06T09:18:37.389Z,7.50
2023-05-06T09:19:40.568Z,7.00
2023-05-06T09:20:43.540Z,7.25
2023-05-06T09:21:47.229Z,9.50
2023-05-06T09:22:50.632Z,9.50
2023-05-06T09:23:53.719Z,8.25
2023-05-06T09:24:57.148Z,7.00
2023-05-06T09:26:00.469Z,6.50
2023-05-06T09:27:03.758Z,6.50
2023-05-06T09:28:07.376Z,6.75
2023-05-06T09:29:10.551Z,7.75
2023-05-06T09:30:13.713Z,9.50
2023-05-06T09:31:16.943Z,13.75
2023-05-06T09:32:20.395Z,14.00
2023-05-06T09:33:23.682Z,13.00
2023-05-06T09:34:26.981Z,13.00
2023-05-06T09:35:30.161Z,11.25
2023-05-06T09:36:33.424Z,10.50
2023-05-06T09:37:36.710Z,14.25
2023-05-06T09:38:40.197Z,16.50
2023-05-06T09:39:43.810Z,16.00
2023-05-06T09:40:47.686Z,14.00
2023-05-06T09:41:51.272Z,16.25
2023-05-06T09:42:55.485Z,13.00
2023-05-06T09:43:58.973Z,11.75
2023-05-06T09:45:02.537Z,11.25
2023-05-06T09:46:05.942Z,11.00
2023-05-06T09:47:09.254Z,13.00
2023-05-06T09:48:12.773Z,16.50
2023-05-06T09:49:16.413Z,15.75
2023-05-06T09:50:19.703Z,16.75
2023-05-06T09:51:22.739Z,14.50
2023-05-06T09:52:26.272Z,16.00
2023-05-06T09:53:30.525Z,17.50
2023-05-06T09:54:33.762Z,16.50
2023-05-06T09:55:37.621Z,15.50
2023-05-06T09:56:40.857Z,12.00
2023-05-06T09:57:44.791Z,10.50
2023-05-06T09:58:48.441Z,13.25
2023-05-06T09:59:52.413Z,12.00
2023-05-06T10:00:56.113Z,13.50
2023-05-06T10:01:59.967Z,13.50
2023-05-06T10:03:03.790Z,12.75
2023-05-06T10:04:07.586Z,14.00
2023-05-06T10:05:12.030Z,13.50
2023-05-06T10:06:16.119Z,11.00
2023-05-06T10:07:19.823Z,12.00
2023-05-06T10:08:23.494Z,12.00
2023-05-06T10:09:27.300Z,13.00
2023-05-06T10:10:31.005Z,15.00
2023-05-06T10:11:34.891Z,12.00
2023-05-06T10:12:38.858Z,14.00
2023-05-06T10:13:42.484Z,13.25
2023-05-06T10:14:45.996Z,14.00
2023-05-06T10:15:50.105Z,14.50
2023-05-06T10:16:53.870Z,13.25
2023-05-06T10:17:58.291Z,13.50
2023-05-06T10:19:01.874Z,12.00
2023-05-06T10:20:05.490Z,15.50
2023-05-06T10:21:09.160Z,15.00
2023-05-06T10:22:12.772Z,13.50
2023-05-06T10:23:16.452Z,15.50
2023-05-06T10:24:20.045Z,16.00
2023-05-06T10:25:24.141Z,16.25
2023-05-06T10:26:28.251Z,15.75
2023-05-06T10:27:31.943Z,13.00
2023-05-06T10:28:35.525Z,14.25
2023-05-06T10:29:39.023Z,17.75
2023-05-06T10:30:42.912Z,16.00
2023-05-06T10:31:46.832Z,13.50
2023-05-06T10:32:50.328Z,14.50
2023-05-06T10:33:53.907Z,15.00
2023-05-06T10:34:57.379Z,17.00
2023-05-06T10:36:01.173Z,15.00
2023-05-06T10:37:05.088Z,13.50
2023-05-06T10:38:08.560Z,15.00
2023-05-06T10:39:12.148Z,15.00
2023-05-06T10:40:15.848Z,12.50
2023-05-06T10:41:19.644Z,15.00
2023-05-06T10:42:22.930Z,14.75
2023-05-06T10:43:26.622Z,14.50
2023-05-06T10:44:30.514Z,12.25
2023-05-06T10:45:33.964Z,13.00
2023-05-06T10:46:37.915Z,14.75
2023-05-06T10:47:41.525Z,10.50
2023-05-06T10:48:45.310Z,12.25
2023-05-06T10:49:49.397Z,15.00
2023-05-06T10:50:53.006Z,15.25
2023-05-06T10:51:56.781Z,18.25
2023-05-06T10:53:00.486Z,16.00
2023-05-06T10:54:04.596Z,15.50
2023-05-06T10:55:08.412Z,14.50
2023-05-06T10:56:12.482Z,15.00
2023-05-06T10:57:16.378Z,16.50
2023-05-06T10:58:19.869Z,16.25
2023-05-06T10:59:23.768Z,16.00
2023-05-06T11:00:27.871Z,15.50
2023-05-06T11:01:31.561Z,17.25
2023-05-06T11:02:35.520Z,16.50
2023-05-06T11:03:38.867Z,14.25
2023-05-06T11:04:42.557Z,14.50
2023-05-06T11:05:46.216Z,15.00
2023-05-06T11:06:49.728Z,15.00
2023-05-06T11:07:54.845Z,14.75
2023-05-06T11:08:57.752Z,15.00
2023-05-06T11:10:01.339Z,14.50
2023-05-06T11:11:05.134Z,14.00
2023-05-06T11:12:08.607Z,11.50
2023-05-06T11:13:11.921Z,12.50
2023-05-06T11:14:15.508Z,14.50
2023-05-06T11:15:19.176Z,14.50
2023-05-06T11:16:23.332Z,15.25
2023-05-06T11:17:26.687Z,15.50
2023-05-06T11:18:30.468Z,16.00
2023-05-06T11:19:34.065Z,16.00
2023-05-06T11:20:37.747Z,17.50
2023-05-06T11:21:41.505Z,17.25
2023-05-06T11:22:45.041Z,15.25
2023-05-06T11:23:48.531Z,15.50
2023-05-06T11:24:52.247Z,18.25
2023-05-06T11:25:55.519Z,17.25
2023-05-06T11:26:59.318Z,17.00
2023-05-06T11:28:02.785Z,14.75
2023-05-06T11:29:06.378Z,14.25
2023-05-06T11:30:09.842Z,14.00
2023-05-06T11:31:13.804Z,14.50
2023-05-06T11:32:18.275Z,14.00
2023-05-06T11:33:22.182Z,14.00
2023-05-06T11:34:26.096Z,15.25
2023-05-06T11:35:29.871Z,16.50
2023-05-06T11:36:34.295Z,15.75
2023-05-06T11:37:38.135Z,15.00
2023-05-06T11:38:42.081Z,13.00
2023-05-06T11:39:46.003Z,13.25
2023-05-06T11:40:49.680Z,14.50
2023-05-06T11:41:53.502Z,15.50
2023-05-06T11:42:57.689Z,15.50
2023-05-06T11:44:02.286Z,17.00
2023-05-06T11:45:05.877Z,16.50
2023-05-06T11:46:09.783Z,15.75
2023-05-06T11:47:13.990Z,15.00
2023-05-06T11:48:17.608Z,16.75
2023-05-06T11:49:21.985Z,16.00
2023-05-06T11:50:26.197Z,16.00
2023-05-06T11:51:29.984Z,16.00
2023-05-06T11:52:33.799Z,15.25
2023-05-06T11:53:37.464Z,15.00
2023-05-06T11:54:40.984Z,16.50
2023-05-06T11:55:45.283Z,21.50
2023-05-06T11:56:49.391Z,25.50
2023-05-06T11:57:52.975Z,28.25
2023-05-06T11:58:56.980Z,30.00
2023-05-06T12:00:01.300Z,31.00
2023-05-06T12:01:05.099Z,26.50
2023-05-06T12:02:09.306Z,27.00
2023-05-06T12:03:13.357Z,26.25
2023-05-06T12:04:17.018Z,24.50
2023-05-06T12:05:20.885Z,28.25
2023-05-06T12:06:24.976Z,32.75
2023-05-06T12:07:29.289Z,30.00
2023-05-06T12:08:32.886Z,27.25
2023-05-06T12:09:37.165Z,29.50
2023-05-06T12:10:41.188Z,36.75
2023-05-06T12:11:45.161Z,35.75
2023-05-06T12:12:49.025Z,29.50
2023-05-06T12:13:52.674Z,27.50
2023-05-06T12:14:56.481Z,27.00
2023-05-06T12:16:00.269Z,27.00
2023-05-06T12:17:04.591Z,30.00
2023-05-06T12:18:08.637Z,26.50
2023-05-06T12:19:12.380Z,27.50
2023-05-06T12:20:16.390Z,28.50
2023-05-06T12:21:20.183Z,28.75
2023-05-06T12:22:25.194Z,29.75
2023-05-06T12:23:28.727Z,25.25
2023-05-06T12:24:31.966Z,24.50
2023-05-06T12:25:35.276Z,26.50
2023-05-06T12:26:38.744Z,26.50
2023-05-06T12:27:42.847Z,26.25
2023-05-06T12:28:46.234Z,25.00
2023-05-06T12:29:49.523Z,24.00
2023-05-06T12:30:53.215Z,22.60
2023-05-06T12:31:56.856Z,26.00
2023-05-06T12:33:00.626Z,27.25
2023-05-06T12:34:04.411Z,25.00
2023-05-06T12:35:07.922Z,24.00
2023-05-06T12:36:11.701Z,24.50
2023-05-06T12:37:15.274Z,29.50
2023-05-06T12:38:18.576Z,33.50
2023-05-06T12:39:22.257Z,27.75
2023-05-06T12:40:25.846Z,24.00
2023-05-06T12:41:29.437Z,29.00
2023-05-06T12:42:32.736Z,31.25
2023-05-06T12:43:36.248Z,25.25
2023-05-06T12:44:39.710Z,25.25
2023-05-06T12:45:43.458Z,28.50
2023-05-06T12:46:47.434Z,31.25
2023-05-06T12:47:50.865Z,28.50
2023-05-06T12:48:54.591Z,28.25
2023-05-06T12:49:58.448Z,27.50
2023-05-06T12:51:02.398Z,32.25
2023-05-06T12:52:06.285Z,35.00
2023-05-06T12:53:10.299Z,29.50
2023-05-06T12:54:13.867Z,30.25
2023-05-06T12:55:17.582Z,28.25
2023-05-06T12:56:21.368Z,28.00
2023-05-06T12:57:25.152Z,30.75
2023-05-06T12:58:29.064Z,28.75
2023-05-06T12:59:32.469Z,31.00
2023-05-06T13:00:36.183Z,30.25
2023-05-06T13:01:40.149Z,29.75
2023-05-06T13:02:43.833Z,30.75
2023-05-06T13:03:48.036Z,25.25
2023-05-06T13:04:52.560Z,20.00
2023-05-06T13:05:56.134Z,24.75
2023-05-06T13:06:59.834Z,29.00
2023-05-06T13:08:03.214Z,31.50
2023-05-06T13:09:06.816Z,29.50
2023-05-06T13:10:10.830Z,25.50
2023-05-06T13:11:15.028Z,24.75
2023-05-06T13:12:18.957Z,25.00
2023-05-06T13:13:23.013Z,23.50
2023-05-06T13:14:26.627Z,27.50
2023-05-06T13:15:30.301Z,25.75
2023-05-06T13:16:34.468Z,26.00
2023-05-06T13:17:38.326Z,29.00
2023-05-06T13:18:42.098Z,25.75
2023-05-06T13:19:45.796Z,22.50
2023-05-06T13:20:49.409Z,22.25
2023-05-06T13:21:53.184Z,21.50
2023-05-06T13:22:57.195Z,26.00
2023-05-06T13:24:00.987Z,27.00
2023-05-06T13:25:04.343Z,23.00
2023-05-06T13:26:07.875Z,21.00
2023-05-06T13:27:11.562Z,27.00
2023-05-06T13:28:15.150Z,27.50
2023-05-06T13:29:18.428Z,24.25
2023-05-06T13:30:21.782Z,29.00
2023-05-06T13:31:25.331Z,30.00
2023-05-06T13:32:28.805Z,29.50
2023-05-06T13:33:32.069Z,27.00
2023-05-06T13:34:35.357Z,22.75
2023-05-06T13:35:39.060Z,20.50
2023-05-06T13:36:42.440Z,21.00
2023-05-06T13:37:46.236Z,24.50
2023-05-06T13:38:49.933Z,23.50
2023-05-06T13:39:53.327Z,25.25
2023-05-06T13:40:56.806Z,26.40
2023-05-06T13:42:00.831Z,22.50
2023-05-06T13:43:04.398Z,20.50
2023-05-06T13:44:07.852Z,23.00
2023-05-06T13:45:11.276Z,24.50
2023-05-06T13:46:15.120Z,23.00
2023-05-06T13:47:19.071Z,23.50
2023-05-06T13:48:22.354Z,27.25
2023-05-06T13:49:25.740Z,30.50
2023-05-06T13:50:29.143Z,28.00
2023-05-06T13:51:32.415Z,25.50
2023-05-06T13:52:35.900Z,28.75
2023-05-06T13:53:39.513Z,32.00
2023-05-06T13:54:43.182Z,29.50
2023-05-06T13:55:46.470Z,26.75
2023-05-06T13:56:49.649Z,28.25